Decoded Metar for VOBL (Bengaluru in INDIA) (IATA:N/A) | Meteo·Mobile Aviation Weather
aviador You're here:

VOBL Decoded Metar

Bengaluru in INDIA
Report Time2019-04-25 21:30:00
UTC Time2019-04-25 21:59:30
Flight Rules mvfr MVFR
WindVRB at 02 kt
Visibility6000 m
Phenomena:N/A
Clouds:Few 015 Hf
Expected CloudBase > 2,400 ft AGL from Temp-Dew spread
CeilingNone
Temp21°C (ISA +12)
Dew Point15°C (69% RH)
QNH1013 hPa
Density Alt4,629 ft
Elevation3,002 ft
Report Wrong Elevation
Raw Report
METAR VOBL 252130Z VRB02KT 6000 FEW015 21/15 Q1013 NOSIG=

Extra information for VOBL:More info

Metar Taf Metar & Taf Last 4 Metars F.Rules Stats Wind Profile Meteogram Temp Stats Airport Information Weather charts Add Link Nearby VenuesMetar ALERT Operation Metar Decoded Social comments